createdAt,value
2023-11-12T00:03:37.441Z,95653.41
2023-11-12T00:08:39.696Z,95667.00
2023-11-12T00:13:42.956Z,95673.59
2023-11-12T00:18:45.752Z,95668.41
2023-11-12T00:23:48.787Z,95681.44
2023-11-12T00:28:52.304Z,95687.25
2023-11-12T00:33:55.144Z,95675.09
2023-11-12T00:38:58.187Z,95668.88
2023-11-12T00:44:00.944Z,95693.41
2023-11-12T00:49:04.046Z,95672.38
2023-11-12T00:54:07.329Z,95685.59
2023-11-12T00:59:09.659Z,95650.66
2023-11-12T01:04:12.660Z,95659.44
2023-11-12T01:09:15.468Z,95668.22
2023-11-12T01:14:18.346Z,95686.53
2023-11-12T01:19:21.050Z,95677.25
2023-11-12T01:24:23.385Z,95686.72
2023-11-12T01:29:26.444Z,95695.84
2023-11-12T01:34:29.134Z,95687.72
2023-11-12T01:39:32.225Z,95698.06
2023-11-12T01:44:34.501Z,95701.03
2023-11-12T01:49:39.364Z,95701.16
2023-11-12T01:54:42.908Z,95685.84
2023-11-12T01:59:46.434Z,95687.66
2023-11-12T02:04:50.483Z,95698.31
2023-11-12T02:10:00.450Z,95699.78
2023-11-12T02:15:04.565Z,95719.91
2023-11-12T02:20:12.197Z,95722.19
2023-11-12T02:25:15.242Z,95704.75
2023-11-12T02:30:20.541Z,95731.19
2023-11-12T02:35:23.287Z,95702.50
2023-11-12T02:40:26.266Z,95698.47
2023-11-12T02:45:29.322Z,95704.84
2023-11-12T02:50:33.064Z,95709.81
2023-11-12T02:55:36.844Z,95682.03
2023-11-12T03:00:39.666Z,95701.25
2023-11-12T03:05:42.495Z,95705.06
2023-11-12T03:10:45.303Z,95679.53
2023-11-12T03:15:48.182Z,95698.53
2023-11-12T03:20:54.363Z,95702.50
2023-11-12T03:25:58.696Z,95702.75
2023-11-12T03:31:01.116Z,95706.28
2023-11-12T03:36:05.618Z,95705.72
2023-11-12T03:41:08.053Z,95713.66
2023-11-12T03:46:11.225Z,95725.09
2023-11-12T03:51:13.907Z,95722.22
2023-11-12T03:56:16.518Z,95735.00
2023-11-12T04:01:19.322Z,95727.78
2023-11-12T04:06:21.928Z,95715.31
2023-11-12T04:11:25.700Z,95729.31
2023-11-12T04:16:28.352Z,95750.16
2023-11-12T04:21:32.001Z,95756.28
2023-11-12T04:26:34.855Z,95744.78
2023-11-12T04:31:40.988Z,95781.22
2023-11-12T04:36:45.680Z,95797.34
2023-11-12T04:41:48.315Z,95794.91
2023-11-12T04:46:51.063Z,95789.16
2023-11-12T04:51:53.351Z,95787.34
2023-11-12T04:56:56.305Z,95773.63
2023-11-12T05:01:59.551Z,95788.03
2023-11-12T05:07:02.288Z,95804.28
2023-11-12T05:12:05.569Z,95805.38
2023-11-12T05:17:08.096Z,95822.22
2023-11-12T05:22:10.943Z,95822.00
2023-11-12T05:27:13.761Z,95834.63
2023-11-12T05:32:16.791Z,95834.34
2023-11-12T05:37:19.437Z,95854.88
2023-11-12T05:42:22.117Z,95854.03
2023-11-12T05:47:25.298Z,95857.81
2023-11-12T05:52:27.903Z,95852.16
2023-11-12T05:57:30.658Z,95877.50
2023-11-12T06:02:33.860Z,95859.66
2023-11-12T06:07:36.830Z,95889.72
2023-11-12T06:19:26.607Z,95877.88
2023-11-12T06:24:29.595Z,95869.97
2023-11-12T06:29:32.971Z,95880.81
2023-11-12T06:34:36.443Z,95889.22
2023-11-12T06:39:38.760Z,95870.59
2023-11-12T06:44:41.764Z,95889.88
2023-11-12T06:49:45.029Z,95888.66
2023-11-12T06:54:47.943Z,95896.41
2023-11-12T06:59:50.284Z,95904.19
2023-11-12T07:04:52.990Z,95872.81
2023-11-12T07:09:55.764Z,95893.09
2023-11-12T07:14:58.644Z,95886.81
2023-11-12T07:20:01.464Z,95895.44
2023-11-12T07:25:05.364Z,95891.09
2023-11-12T07:30:08.918Z,95880.94
2023-11-12T07:35:14.520Z,95895.56
2023-11-12T07:40:19.310Z,95890.41
2023-11-12T07:45:25.741Z,95890.22
2023-11-12T07:50:34.534Z,95901.53
2023-11-12T07:55:36.856Z,95898.94
2023-11-12T08:00:39.746Z,95910.78
2023-11-12T08:05:42.484Z,95902.78
2023-11-12T08:10:45.433Z,95911.91
2023-11-12T08:15:48.232Z,95926.63
2023-11-12T08:20:51.037Z,95894.13
2023-11-12T08:25:54.690Z,95932.31
2023-11-12T08:30:57.407Z,95920.97
2023-11-12T08:35:59.723Z,95924.72
2023-11-12T08:41:02.715Z,95927.72
2023-11-12T08:46:05.512Z,95918.78
2023-11-12T08:51:10.257Z,95927.06
2023-11-12T08:56:13.831Z,95912.34
2023-11-12T09:01:43.270Z,95915.34
2023-11-12T09:06:45.694Z,95916.84
2023-11-12T09:11:49.570Z,95904.88
2023-11-12T09:16:52.274Z,95907.63
2023-11-12T09:21:54.864Z,95899.41
2023-11-12T09:26:57.783Z,95902.22
2023-11-12T09:32:00.809Z,95889.97
2023-11-12T09:37:05.609Z,95883.63
2023-11-12T09:42:13.588Z,95879.34
2023-11-12T09:47:33.945Z,95873.84
2023-11-12T09:52:36.942Z,95869.25
2023-11-12T09:57:40.181Z,95866.94
2023-11-12T10:02:43.191Z,95877.25
2023-11-12T10:07:46.293Z,95876.81
2023-11-12T10:12:49.955Z,95879.47
2023-11-12T10:17:59.527Z,95869.13
2023-11-12T10:23:05.369Z,95864.09
2023-11-12T10:28:10.472Z,95861.31
2023-11-12T10:33:30.285Z,95866.75
2023-11-12T10:38:53.693Z,95865.56
2023-11-12T10:44:00.114Z,95873.41
2023-11-12T10:49:05.486Z,95851.59
2023-11-12T10:54:10.398Z,95861.75
2023-11-12T10:59:16.364Z,95866.41
2023-11-12T11:04:21.558Z,95868.69
2023-11-12T11:09:25.061Z,95862.47
2023-11-12T11:14:32.585Z,95877.63
2023-11-12T11:19:44.678Z,95886.97
2023-11-12T11:24:47.870Z,95866.16
2023-11-12T11:30:10.964Z,95886.69
2023-11-12T11:35:19.570Z,95880.97
2023-11-12T11:40:32.866Z,95869.31
2023-11-12T11:46:11.903Z,95873.25
2023-11-12T11:51:40.329Z,95872.91
2023-11-12T11:56:43.553Z,95879.38
2023-11-12T12:01:49.718Z,95881.69
2023-11-12T12:06:53.323Z,95886.16
2023-11-12T12:12:07.241Z,95888.28
2023-11-12T12:17:12.308Z,95887.56
2023-11-12T12:22:32.782Z,95899.13
2023-11-12T12:27:37.969Z,95906.56
2023-11-12T12:32:40.857Z,95881.63
2023-11-12T12:37:43.565Z,95902.47
2023-11-12T12:42:46.510Z,95906.91
2023-11-12T12:47:49.470Z,95892.28
2023-11-12T12:52:53.283Z,95909.19
2023-11-12T12:58:00.332Z,95907.69
2023-11-12T13:03:04.107Z,95895.00
2023-11-12T13:08:09.499Z,95914.47
2023-11-12T13:13:13.287Z,95922.56
2023-11-12T13:18:16.575Z,95921.59
2023-11-12T13:23:23.861Z,95914.16
2023-11-12T13:28:26.907Z,95940.31
2023-11-12T13:33:29.703Z,95935.19
2023-11-12T13:38:35.019Z,95934.56
2023-11-12T13:43:39.030Z,95952.59
2023-11-12T13:48:41.682Z,95914.16
2023-11-12T13:53:44.410Z,95943.25
2023-11-12T13:58:52.130Z,95949.75
2023-11-12T14:03:54.566Z,95953.66
2023-11-12T14:08:57.572Z,95962.25
2023-11-12T14:14:00.242Z,95955.16
2023-11-12T14:19:03.109Z,95964.97
2023-11-12T14:24:07.421Z,95948.53
2023-11-12T14:29:12.366Z,95946.50
2023-11-12T14:34:16.428Z,95940.16
2023-11-12T14:39:19.772Z,95954.13
2023-11-12T14:44:22.597Z,95955.47
2023-11-12T14:49:27.451Z,95953.38
2023-11-12T14:54:30.722Z,95962.50
2023-11-12T14:59:39.675Z,95972.56
2023-11-12T15:04:42.412Z,95960.88
2023-11-12T15:09:45.471Z,95967.34
2023-11-12T15:14:48.691Z,95974.28
2023-11-12T15:19:51.019Z,95984.09
2023-11-12T15:24:54.025Z,95982.75
2023-11-12T15:29:57.068Z,95987.81
2023-11-12T15:34:59.669Z,95980.75
2023-11-12T15:40:02.849Z,96010.47
2023-11-12T15:45:07.408Z,96006.09
2023-11-12T15:50:14.008Z,95990.97
2023-11-12T15:55:17.242Z,96011.66
2023-11-12T16:00:20.881Z,96010.78
2023-11-12T16:05:23.284Z,96025.13
2023-11-12T16:10:25.471Z,96014.53
2023-11-12T16:15:31.116Z,96012.09
2023-11-12T16:20:33.775Z,96012.28
2023-11-12T16:25:36.070Z,96021.28
2023-11-12T16:30:39.191Z,96032.13
2023-11-12T16:35:41.886Z,96007.63
2023-11-12T16:40:45.903Z,96021.47
2023-11-12T16:45:48.309Z,96006.56
2023-11-12T16:50:50.971Z,96018.50
2023-11-12T16:55:55.529Z,96015.19
2023-11-12T17:00:58.933Z,96036.25
2023-11-12T17:06:01.554Z,96037.75
2023-11-12T17:11:07.030Z,96037.97
2023-11-12T17:16:09.894Z,96035.81
2023-11-12T17:21:12.225Z,96045.81
2023-11-12T17:26:15.249Z,96071.84
2023-11-12T17:31:18.303Z,96055.91
2023-11-12T17:36:20.668Z,96044.66
2023-11-12T17:41:24.554Z,96050.63
2023-11-12T17:46:27.561Z,96049.00
2023-11-12T17:51:29.938Z,96057.91
2023-11-12T17:56:32.706Z,96049.59
2023-11-12T18:01:35.011Z,96053.59
2023-11-12T18:06:39.211Z,96064.69
2023-11-12T18:11:41.940Z,96067.72
2023-11-12T18:16:48.781Z,96064.19
2023-11-12T18:21:51.877Z,96082.41
2023-11-12T18:26:56.916Z,96085.03
2023-11-12T18:32:05.272Z,96081.09
2023-11-12T18:37:10.753Z,96059.19
2023-11-12T18:42:13.655Z,96066.28
2023-11-12T18:47:15.854Z,96090.56
2023-11-12T18:52:18.655Z,96086.09
2023-11-12T18:57:21.423Z,96099.25
2023-11-12T19:02:25.006Z,96067.44
2023-11-12T19:07:28.292Z,96069.41
2023-11-12T19:12:30.700Z,96090.41
2023-11-12T19:17:33.593Z,96100.06
2023-11-12T19:22:36.424Z,96080.56
2023-11-12T19:27:41.424Z,96099.44
2023-11-12T19:32:44.574Z,96103.91
2023-11-12T19:37:47.870Z,96090.97
2023-11-12T19:42:50.882Z,96111.59
2023-11-12T19:47:55.566Z,96108.09
2023-11-12T19:52:58.568Z,96093.13
2023-11-12T19:58:02.150Z,96100.13
2023-11-12T20:03:04.867Z,96107.00
2023-11-12T20:08:07.656Z,96113.59
2023-11-12T20:13:10.667Z,96149.00
2023-11-12T20:18:13.043Z,96128.00
2023-11-12T20:23:15.298Z,96101.59
2023-11-12T20:28:17.675Z,96117.09
2023-11-12T20:33:21.938Z,96110.75
2023-11-12T20:38:25.651Z,96115.00
2023-11-12T20:43:28.689Z,96123.56
2023-11-12T20:48:31.497Z,96139.09
2023-11-12T20:53:34.238Z,96119.44
2023-11-12T20:58:37.210Z,96149.69
2023-11-12T21:03:40.166Z,96139.69
2023-11-12T21:08:42.903Z,96131.63
2023-11-12T21:13:48.271Z,96106.66
2023-11-12T21:18:52.419Z,96150.94
2023-11-12T21:23:55.122Z,96131.19
2023-11-12T21:28:58.983Z,96125.03
2023-11-12T21:34:02.335Z,96129.91
2023-11-12T21:39:10.395Z,96150.25
2023-11-12T21:44:14.624Z,96145.63
2023-11-12T21:49:17.349Z,96120.13
2023-11-12T21:54:21.983Z,96122.88
2023-11-12T21:59:24.765Z,96135.81
2023-11-12T22:04:27.097Z,96130.06
2023-11-12T22:09:29.361Z,96117.09
2023-11-12T22:14:31.993Z,96134.63
2023-11-12T22:19:34.774Z,96106.78
2023-11-12T22:24:37.049Z,96124.06
2023-11-12T22:29:39.233Z,96117.72
2023-11-12T22:34:41.822Z,96105.59
2023-11-12T22:39:44.822Z,96118.34
2023-11-12T22:44:47.128Z,96117.22
2023-11-12T22:49:50.157Z,96105.75
2023-11-12T22:54:52.911Z,96099.41
2023-11-12T22:59:55.635Z,96086.56
2023-11-12T23:04:57.836Z,96087.84
2023-11-12T23:10:08.504Z,96101.56
2023-11-12T23:15:12.859Z,96101.25
2023-11-12T23:20:15.681Z,96103.28
2023-11-12T23:25:22.016Z,96111.91
2023-11-12T23:30:25.089Z,96080.34
2023-11-12T23:35:29.100Z,96084.47
2023-11-12T23:40:32.242Z,96092.59
2023-11-12T23:45:34.888Z,96099.41
2023-11-12T23:50:56.465Z,96102.19
2023-11-12T23:55:58.845Z,96105.06
